createdAt,value
2019-01-17T00:00:56.726Z,16.90
2019-01-17T00:01:56.699Z,15.60
2019-01-17T00:02:56.709Z,11.90
2019-01-17T00:03:56.642Z,13.10
2019-01-17T00:04:56.618Z,14.50
2019-01-17T00:05:56.595Z,13.80
2019-01-17T00:06:56.590Z,13.00
2019-01-17T00:07:56.554Z,12.80
2019-01-17T00:08:56.540Z,13.40
2019-01-17T00:09:56.486Z,16.80
2019-01-17T00:10:56.473Z,11.60
2019-01-17T00:11:56.439Z,9.80
2019-01-17T00:12:56.433Z,9.20
2019-01-17T00:13:56.409Z,14.30
2019-01-17T00:14:56.376Z,9.10
2019-01-17T00:15:56.368Z,17.10
2019-01-17T00:16:56.334Z,15.30
2019-01-17T00:17:56.323Z,11.60
2019-01-17T00:18:56.291Z,13.70
2019-01-17T00:19:56.262Z,12.50
2019-01-17T00:20:56.218Z,12.90
2019-01-17T00:21:56.207Z,11.30
2019-01-17T00:22:56.168Z,10.40
2019-01-17T00:23:56.143Z,10.20
2019-01-17T00:24:56.145Z,11.40
2019-01-17T00:25:56.094Z,13.10
2019-01-17T00:26:56.095Z,13.50
2019-01-17T00:27:56.072Z,15.20
2019-01-17T00:28:56.071Z,12.80
2019-01-17T00:29:55.991Z,14.20
2019-01-17T00:30:55.990Z,10.50
2019-01-17T00:31:55.950Z,12.10
2019-01-17T00:32:55.924Z,13.20
2019-01-17T00:33:55.924Z,12.30
2019-01-17T00:34:55.891Z,11.50
2019-01-17T00:35:55.852Z,12.30
2019-01-17T00:36:55.821Z,12.80
2019-01-17T00:37:55.813Z,10.30
2019-01-17T00:38:55.773Z,12.10
2019-01-17T00:39:55.747Z,9.40
2019-01-17T00:40:55.728Z,10.70
2019-01-17T00:41:55.695Z,10.00
2019-01-17T00:42:55.683Z,10.10
2019-01-17T00:43:55.643Z,10.40
2019-01-17T00:44:55.627Z,9.70
2019-01-17T00:45:55.618Z,9.30
2019-01-17T00:46:55.580Z,11.60
2019-01-17T00:47:55.574Z,8.80
2019-01-17T00:48:55.528Z,9.60
2019-01-17T00:49:55.540Z,10.60
2019-01-17T00:50:55.488Z,10.00
2019-01-17T00:51:55.455Z,10.20
2019-01-17T00:52:55.423Z,9.50
2019-01-17T00:53:55.424Z,8.50
2019-01-17T00:54:55.395Z,10.30
2019-01-17T00:55:55.351Z,8.50
2019-01-17T00:56:55.368Z,11.50
2019-01-17T00:57:55.299Z,10.20
2019-01-17T00:58:55.275Z,11.00
2019-01-17T00:59:55.251Z,9.00
2019-01-17T01:00:55.231Z,10.10
2019-01-17T01:01:55.212Z,9.90
2019-01-17T01:02:55.207Z,10.70
2019-01-17T01:03:55.166Z,8.60
2019-01-17T01:04:55.146Z,8.90
2019-01-17T01:05:55.131Z,9.20
2019-01-17T01:06:55.079Z,7.90
2019-01-17T01:07:55.057Z,10.80
2019-01-17T01:08:55.046Z,8.80
2019-01-17T01:09:55.014Z,9.10
2019-01-17T01:10:54.981Z,9.10
2019-01-17T01:11:54.996Z,8.00
2019-01-17T01:12:54.957Z,8.40
2019-01-17T01:13:54.918Z,10.10
2019-01-17T01:14:54.898Z,7.40
2019-01-17T01:15:54.879Z,9.80
2019-01-17T01:16:54.832Z,8.20
2019-01-17T01:17:54.821Z,8.00
2019-01-17T01:18:54.794Z,7.60
2019-01-17T01:19:54.777Z,9.70
2019-01-17T01:20:54.730Z,7.90
2019-01-17T01:21:54.711Z,9.80
2019-01-17T01:22:54.689Z,9.50
2019-01-17T01:23:54.658Z,9.60
2019-01-17T01:24:54.635Z,13.30
2019-01-17T01:25:54.615Z,8.50
2019-01-17T01:26:54.591Z,7.20
2019-01-17T01:27:54.601Z,8.60
2019-01-17T01:28:54.573Z,8.70
2019-01-17T01:29:54.510Z,8.80
2019-01-17T01:30:54.498Z,10.00
2019-01-17T01:31:54.493Z,8.00
2019-01-17T01:32:54.435Z,8.40
2019-01-17T01:33:54.445Z,7.60
2019-01-17T01:34:54.417Z,10.20
2019-01-17T01:35:54.387Z,8.30
2019-01-17T01:36:54.332Z,6.70
2019-01-17T01:37:54.306Z,7.40
2019-01-17T01:38:54.285Z,9.10
2019-01-17T01:39:54.270Z,7.70
2019-01-17T01:40:54.244Z,6.90
2019-01-17T01:41:54.245Z,7.30
2019-01-17T01:42:54.218Z,7.90
2019-01-17T01:43:54.173Z,7.80
2019-01-17T01:44:54.140Z,7.40
2019-01-17T01:45:54.113Z,7.20
2019-01-17T01:46:54.087Z,9.00
2019-01-17T01:47:54.076Z,9.20
2019-01-17T01:48:54.044Z,7.30
2019-01-17T01:49:54.037Z,8.40
2019-01-17T01:50:53.993Z,8.90
2019-01-17T01:51:53.973Z,7.30
2019-01-17T01:52:53.948Z,7.20
2019-01-17T01:53:53.927Z,7.10
2019-01-17T01:54:53.895Z,7.00
2019-01-17T01:55:53.867Z,7.90
2019-01-17T01:56:53.840Z,7.20
2019-01-17T01:57:53.851Z,6.70
2019-01-17T01:58:53.793Z,7.60
2019-01-17T01:59:53.764Z,8.10
2019-01-17T02:00:53.747Z,6.90
2019-01-17T02:01:53.733Z,7.40
2019-01-17T02:02:53.714Z,7.10
2019-01-17T02:03:53.688Z,6.80
2019-01-17T02:04:53.651Z,7.60
2019-01-17T02:05:53.651Z,7.70
2019-01-17T02:06:53.634Z,7.80
2019-01-17T02:07:53.574Z,7.70
2019-01-17T02:08:53.556Z,6.70
2019-01-17T02:09:53.557Z,8.60
2019-01-17T02:10:53.527Z,8.30
2019-01-17T02:11:53.530Z,7.20
2019-01-17T02:12:53.448Z,8.00
2019-01-17T02:13:53.439Z,7.20
2019-01-17T02:14:53.416Z,7.90
2019-01-17T02:15:53.398Z,8.10
2019-01-17T02:16:53.347Z,9.50
2019-01-17T02:17:53.346Z,7.80
2019-01-17T02:18:53.329Z,8.40
2019-01-17T02:19:53.278Z,7.50
2019-01-17T02:20:53.246Z,7.40
2019-01-17T02:21:53.259Z,7.30
2019-01-17T02:22:53.222Z,7.60
2019-01-17T02:23:53.215Z,7.70
2019-01-17T02:24:53.152Z,7.20
2019-01-17T02:25:53.122Z,8.90
2019-01-17T02:26:53.099Z,8.10
2019-01-17T02:27:53.073Z,9.10
2019-01-17T02:28:53.066Z,7.80
2019-01-17T02:29:53.024Z,7.40
2019-01-17T02:30:53.032Z,7.20
2019-01-17T02:31:53.020Z,8.80
2019-01-17T02:32:52.974Z,9.50
2019-01-17T02:33:52.946Z,9.70
2019-01-17T02:34:52.933Z,8.60
2019-01-17T02:35:52.919Z,8.40
2019-01-17T02:36:52.878Z,8.10
2019-01-17T02:37:52.843Z,8.20
2019-01-17T02:38:52.822Z,8.80
2019-01-17T02:39:52.807Z,8.50
2019-01-17T02:40:52.783Z,8.20
2019-01-17T02:41:52.777Z,9.00
2019-01-17T02:42:52.740Z,9.50
2019-01-17T02:43:52.687Z,7.80
2019-01-17T02:44:52.659Z,8.10
2019-01-17T02:45:52.667Z,9.10
2019-01-17T02:46:52.619Z,7.90
2019-01-17T02:47:52.593Z,9.70
2019-01-17T02:48:52.587Z,9.00
2019-01-17T02:49:52.544Z,7.50
2019-01-17T02:50:52.551Z,9.70
2019-01-17T02:51:52.486Z,8.90
2019-01-17T02:52:52.490Z,7.60
2019-01-17T02:53:52.458Z,8.00
2019-01-17T02:54:52.432Z,9.00
2019-01-17T02:55:52.418Z,9.90
2019-01-17T02:56:52.366Z,9.30
2019-01-17T02:57:52.353Z,8.10
2019-01-17T02:58:52.338Z,8.90
2019-01-17T02:59:52.315Z,7.10
2019-01-17T03:00:52.267Z,9.00
2019-01-17T03:01:52.282Z,12.50
2019-01-17T03:02:52.249Z,7.80
2019-01-17T03:03:52.219Z,8.50
2019-01-17T03:04:52.222Z,8.30
2019-01-17T03:05:52.155Z,8.40
2019-01-17T03:06:52.124Z,8.70
2019-01-17T03:07:52.107Z,9.70
2019-01-17T03:08:52.097Z,10.00
2019-01-17T03:09:52.057Z,8.50
2019-01-17T03:10:52.046Z,10.30
2019-01-17T03:11:52.011Z,8.70
2019-01-17T03:12:51.981Z,9.50
2019-01-17T03:13:51.963Z,10.30
2019-01-17T03:14:51.957Z,8.90
2019-01-17T03:15:51.922Z,9.70
2019-01-17T03:16:51.883Z,9.40
2019-01-17T03:17:51.879Z,9.10
2019-01-17T03:18:51.861Z,8.40
2019-01-17T03:19:51.807Z,8.90
2019-01-17T03:20:51.790Z,9.00
2019-01-17T03:21:51.781Z,8.90
2019-01-17T03:22:51.742Z,8.80
2019-01-17T03:23:51.709Z,9.20
2019-01-17T03:24:51.693Z,9.00
2019-01-17T03:25:51.680Z,8.10
2019-01-17T03:26:51.639Z,8.90
2019-01-17T03:27:51.633Z,8.00
2019-01-17T03:28:51.596Z,8.30
2019-01-17T03:29:51.573Z,9.30
2019-01-17T03:30:51.575Z,8.30
2019-01-17T03:31:51.532Z,8.30
2019-01-17T03:32:51.498Z,7.80
2019-01-17T03:33:51.499Z,8.60
2019-01-17T03:34:51.450Z,10.40
2019-01-17T03:35:51.425Z,9.80
2019-01-17T03:36:51.423Z,9.60
2019-01-17T03:37:51.396Z,9.30
2019-01-17T03:38:51.362Z,10.20
2019-01-17T03:39:51.355Z,9.80
2019-01-17T03:40:51.318Z,10.90
2019-01-17T03:41:51.293Z,11.20
2019-01-17T03:42:51.253Z,10.90
2019-01-17T03:43:51.235Z,11.00
2019-01-17T03:44:51.229Z,10.60
2019-01-17T03:45:51.191Z,10.40
2019-01-17T03:46:51.164Z,12.60
2019-01-17T03:47:51.151Z,12.10
2019-01-17T03:48:51.121Z,10.10
2019-01-17T03:49:51.096Z,11.30
2019-01-17T03:50:51.059Z,12.20
2019-01-17T03:51:51.043Z,13.40
2019-01-17T03:52:51.025Z,11.20
2019-01-17T03:53:50.992Z,12.10
2019-01-17T03:54:53.890Z,12.30
2019-01-17T03:55:50.952Z,10.30
2019-01-17T03:56:50.922Z,12.30
2019-01-17T03:57:50.895Z,12.70
2019-01-17T03:58:50.867Z,10.90
2019-01-17T03:59:50.846Z,11.10
2019-01-17T04:00:50.817Z,10.60
2019-01-17T04:01:50.796Z,11.40
2019-01-17T04:02:50.780Z,12.30
2019-01-17T04:03:50.755Z,14.20
2019-01-17T04:04:50.751Z,10.90
2019-01-17T04:05:50.708Z,12.90
2019-01-17T04:06:50.677Z,11.80
2019-01-17T04:07:50.682Z,13.00
2019-01-17T04:08:50.654Z,12.60
2019-01-17T04:09:50.617Z,12.40
2019-01-17T04:10:50.621Z,11.20
2019-01-17T04:11:50.552Z,11.10
2019-01-17T04:12:50.527Z,10.80
2019-01-17T04:13:50.506Z,11.00
2019-01-17T04:14:50.516Z,11.50
2019-01-17T04:15:50.458Z,10.30
2019-01-17T04:16:50.480Z,9.90
2019-01-17T04:17:50.414Z,10.80
2019-01-17T04:18:50.425Z,10.70
2019-01-17T04:19:50.394Z,10.80
2019-01-17T04:20:50.338Z,11.40
2019-01-17T04:21:50.329Z,13.00
2019-01-17T04:22:50.291Z,13.50
2019-01-17T04:23:50.272Z,12.10
2019-01-17T04:24:57.119Z,11.10
2019-01-17T04:25:50.347Z,12.80
2019-01-17T04:26:50.192Z,12.20
2019-01-17T04:27:50.176Z,13.20
2019-01-17T04:28:50.143Z,10.90
2019-01-17T04:29:50.154Z,12.10
2019-01-17T04:30:50.124Z,12.10
2019-01-17T04:31:50.119Z,11.90
2019-01-17T04:32:50.059Z,11.60
2019-01-17T04:33:50.045Z,11.50
2019-01-17T04:34:50.022Z,12.10
2019-01-17T04:35:49.992Z,10.70
2019-01-17T04:36:49.962Z,12.50
2019-01-17T04:37:49.939Z,11.50
2019-01-17T04:38:49.909Z,11.60
2019-01-17T04:39:49.881Z,12.90
2019-01-17T04:40:49.858Z,12.60
2019-01-17T04:41:49.844Z,13.50
2019-01-17T04:42:49.822Z,10.50
2019-01-17T04:43:49.796Z,11.50
2019-01-17T04:44:49.774Z,11.60
2019-01-17T04:45:49.779Z,11.10
2019-01-17T04:46:49.728Z,11.00
2019-01-17T04:47:49.691Z,12.10
2019-01-17T04:48:49.692Z,13.20
2019-01-17T04:49:49.664Z,11.80
2019-01-17T04:50:49.644Z,12.10
2019-01-17T04:51:49.592Z,11.10
2019-01-17T04:52:49.572Z,11.30
2019-01-17T04:53:49.560Z,11.50
2019-01-17T04:54:49.517Z,11.80
2019-01-17T04:55:49.501Z,12.00
2019-01-17T04:56:49.503Z,10.70
2019-01-17T04:57:49.452Z,10.70
2019-01-17T04:58:49.441Z,11.50
2019-01-17T04:59:49.401Z,12.50
2019-01-17T05:00:49.380Z,12.40
2019-01-17T05:01:49.364Z,15.10
2019-01-17T05:02:49.356Z,13.70
2019-01-17T05:03:49.308Z,12.20
2019-01-17T05:04:49.299Z,11.90
2019-01-17T05:05:49.259Z,12.50
2019-01-17T05:06:49.255Z,11.40
2019-01-17T05:07:49.239Z,11.20
2019-01-17T05:08:49.208Z,12.10
2019-01-17T05:09:49.213Z,11.10
2019-01-17T05:10:49.161Z,11.80
2019-01-17T05:11:49.126Z,12.00
2019-01-17T05:12:49.126Z,11.00
2019-01-17T05:13:49.096Z,11.50
2019-01-17T05:14:49.071Z,11.30
2019-01-17T05:15:49.062Z,10.80
2019-01-17T05:16:49.020Z,12.70
2019-01-17T05:17:48.990Z,13.00
2019-01-17T05:18:48.956Z,13.30
2019-01-17T05:19:48.919Z,11.70
2019-01-17T05:20:48.897Z,11.70
2019-01-17T05:21:48.886Z,11.70
2019-01-17T05:22:48.879Z,11.10
2019-01-17T05:23:48.843Z,11.40
2019-01-17T05:24:48.824Z,10.90
2019-01-17T05:25:48.779Z,11.30
2019-01-17T05:26:48.752Z,12.30
2019-01-17T05:27:48.739Z,13.60
2019-01-17T05:28:48.732Z,13.80
2019-01-17T05:29:48.684Z,13.10
2019-01-17T05:30:48.662Z,13.00
2019-01-17T05:31:48.660Z,14.00
2019-01-17T05:32:48.618Z,13.20
2019-01-17T05:33:48.600Z,14.00
2019-01-17T05:34:48.590Z,15.50
2019-01-17T05:35:48.551Z,13.10
2019-01-17T05:36:48.515Z,12.70
2019-01-17T05:37:48.489Z,12.10
2019-01-17T05:38:48.473Z,13.90
2019-01-17T05:39:48.465Z,13.20
2019-01-17T05:40:48.447Z,14.30
2019-01-17T05:41:48.405Z,13.90
2019-01-17T05:42:48.389Z,14.80
2019-01-17T05:43:48.379Z,15.50
2019-01-17T05:44:48.334Z,14.10
2019-01-17T05:45:48.338Z,16.30
2019-01-17T05:46:48.291Z,14.40
2019-01-17T05:47:48.256Z,13.60
2019-01-17T05:48:48.261Z,13.90
2019-01-17T05:49:48.205Z,12.40
2019-01-17T05:50:48.177Z,14.20
2019-01-17T05:51:48.165Z,14.40
2019-01-17T05:52:48.137Z,12.60
2019-01-17T05:53:48.117Z,17.50
2019-01-17T05:54:48.124Z,14.00
2019-01-17T05:55:48.103Z,13.70
2019-01-17T05:56:48.052Z,13.70
2019-01-17T05:57:48.026Z,13.20
2019-01-17T05:58:47.998Z,13.60
2019-01-17T05:59:47.994Z,15.30
2019-01-17T06:00:47.952Z,13.50
2019-01-17T06:01:47.933Z,13.60
2019-01-17T06:02:47.912Z,13.60
2019-01-17T06:03:47.878Z,13.80
2019-01-17T06:04:47.837Z,12.90
2019-01-17T06:05:47.818Z,13.30
2019-01-17T06:06:47.799Z,12.90
2019-01-17T06:07:47.782Z,16.90
2019-01-17T06:08:47.766Z,14.00
2019-01-17T06:09:47.728Z,13.50
2019-01-17T06:10:47.733Z,13.20
2019-01-17T06:11:47.706Z,14.20
2019-01-17T06:12:47.646Z,14.40
2019-01-17T06:13:47.623Z,13.50
2019-01-17T06:14:47.613Z,14.10
2019-01-17T06:15:47.581Z,14.40
2019-01-17T06:16:47.562Z,15.40
2019-01-17T06:17:47.562Z,14.90
2019-01-17T06:18:47.525Z,15.70
2019-01-17T06:19:47.499Z,15.10
2019-01-17T06:20:47.494Z,14.50
2019-01-17T06:21:47.576Z,15.40
2019-01-17T06:22:47.456Z,16.20
2019-01-17T06:23:47.384Z,14.30
2019-01-17T06:24:47.383Z,13.80
2019-01-17T06:25:47.367Z,14.00
2019-01-17T06:26:47.320Z,14.10
2019-01-17T06:27:47.294Z,12.60
2019-01-17T06:28:47.297Z,12.60
2019-01-17T06:29:47.248Z,14.00
2019-01-17T06:30:47.215Z,14.20
2019-01-17T06:31:47.202Z,13.90
2019-01-17T06:32:47.193Z,12.70
2019-01-17T06:33:47.152Z,14.10
2019-01-17T06:34:47.151Z,13.50
2019-01-17T06:35:47.097Z,15.80
2019-01-17T06:36:47.088Z,13.50
2019-01-17T06:37:47.050Z,13.20
2019-01-17T06:38:47.019Z,13.80
2019-01-17T06:39:47.004Z,14.30
2019-01-17T06:40:46.974Z,14.50
2019-01-17T06:41:46.974Z,14.10
2019-01-17T06:42:46.935Z,16.00
2019-01-17T06:43:46.909Z,15.30
2019-01-17T06:44:46.911Z,14.10
2019-01-17T06:45:46.880Z,12.60
2019-01-17T06:46:46.834Z,13.90
2019-01-17T06:47:46.824Z,15.80
2019-01-17T06:48:46.807Z,14.70
2019-01-17T06:49:46.774Z,14.80
2019-01-17T06:50:46.737Z,13.50
2019-01-17T06:51:46.749Z,13.40
2019-01-17T06:52:46.693Z,14.10
2019-01-17T06:53:46.695Z,13.30
2019-01-17T06:54:46.663Z,14.10
2019-01-17T06:55:46.618Z,12.40
2019-01-17T06:56:46.613Z,12.00
2019-01-17T06:57:46.597Z,14.30
2019-01-17T06:58:46.558Z,12.00
2019-01-17T06:59:46.528Z,14.50
2019-01-17T07:00:46.516Z,12.20
2019-01-17T07:01:46.486Z,13.50
2019-01-17T07:02:46.437Z,11.20
2019-01-17T07:03:46.440Z,15.00
2019-01-17T07:04:46.407Z,12.80
2019-01-17T07:05:46.391Z,14.00
2019-01-17T07:06:46.353Z,11.50
2019-01-17T07:07:46.346Z,14.80
2019-01-17T07:08:46.297Z,16.50
2019-01-17T07:09:46.301Z,12.40
2019-01-17T07:10:46.260Z,14.20
2019-01-17T07:11:46.226Z,12.60
2019-01-17T07:12:46.345Z,15.60
2019-01-17T07:13:46.171Z,14.40
2019-01-17T07:14:46.165Z,14.00
2019-01-17T07:15:46.124Z,12.30
2019-01-17T07:16:46.133Z,11.50
2019-01-17T07:17:46.090Z,14.40
2019-01-17T07:18:46.066Z,11.90
2019-01-17T07:19:46.032Z,13.40
2019-01-17T07:20:46.006Z,12.60
2019-01-17T07:21:45.978Z,11.20
2019-01-17T07:22:45.952Z,13.90
2019-01-17T07:23:45.948Z,11.80
2019-01-17T07:24:45.906Z,12.40
2019-01-17T07:25:45.879Z,11.70
2019-01-17T07:26:45.880Z,13.00
2019-01-17T07:27:45.831Z,14.10
2019-01-17T07:28:45.833Z,14.70
2019-01-17T07:29:46.831Z,13.00
2019-01-17T07:30:45.771Z,13.60
2019-01-17T07:31:45.767Z,14.90
2019-01-17T07:32:45.723Z,13.00
2019-01-17T07:33:45.685Z,13.00
2019-01-17T07:34:45.692Z,13.10
2019-01-17T07:35:45.643Z,12.60
2019-01-17T07:36:45.609Z,11.70
2019-01-17T07:37:45.600Z,11.50
2019-01-17T07:38:45.583Z,13.70
2019-01-17T07:39:45.560Z,12.30
2019-01-17T07:40:45.512Z,10.30
2019-01-17T07:41:45.489Z,10.20
2019-01-17T07:42:45.472Z,11.10
2019-01-17T07:43:45.450Z,10.60
2019-01-17T07:44:45.447Z,11.10
2019-01-17T07:45:45.400Z,9.00
2019-01-17T07:46:45.378Z,9.80
2019-01-17T07:47:45.366Z,11.60
2019-01-17T07:48:45.317Z,9.70
2019-01-17T07:49:45.319Z,10.50
2019-01-17T07:50:45.268Z,12.90
2019-01-17T07:51:45.284Z,9.80
2019-01-17T07:52:45.224Z,11.20
2019-01-17T07:53:45.236Z,7.80
2019-01-17T07:54:45.225Z,10.70
2019-01-17T07:55:47.663Z,10.40
2019-01-17T07:56:45.121Z,9.20
2019-01-17T07:57:45.118Z,9.00
2019-01-17T07:58:45.985Z,10.10
2019-01-17T07:59:45.053Z,9.40
2019-01-17T08:00:45.042Z,9.80
2019-01-17T08:01:45.023Z,9.20
2019-01-17T08:02:44.987Z,11.30
2019-01-17T08:03:44.951Z,9.00
2019-01-17T08:04:44.938Z,11.50
2019-01-17T08:05:44.920Z,10.00
2019-01-17T08:06:44.919Z,9.10
2019-01-17T08:07:44.875Z,10.30
2019-01-17T08:08:44.838Z,10.10
2019-01-17T08:09:46.125Z,11.60
2019-01-17T08:10:44.832Z,9.90
2019-01-17T08:11:44.761Z,11.90
2019-01-17T08:12:44.742Z,10.50
2019-01-17T08:13:44.741Z,10.00
2019-01-17T08:14:44.720Z,8.90
2019-01-17T08:15:44.687Z,11.50
2019-01-17T08:16:44.638Z,10.80
2019-01-17T08:17:44.648Z,10.80
2019-01-17T08:18:44.596Z,11.10
2019-01-17T08:19:44.566Z,8.70
2019-01-17T08:20:44.571Z,10.20
2019-01-17T08:21:44.526Z,10.40
2019-01-17T08:22:44.503Z,10.90
2019-01-17T08:23:44.492Z,8.40
2019-01-17T08:24:44.441Z,9.50
2019-01-17T08:25:44.416Z,7.60
2019-01-17T08:26:44.395Z,11.60
2019-01-17T08:27:44.530Z,8.50
2019-01-17T08:28:44.353Z,10.00
2019-01-17T08:29:44.366Z,10.00
2019-01-17T08:30:44.297Z,10.90
2019-01-17T08:31:44.290Z,11.10
2019-01-17T08:32:44.270Z,10.40
2019-01-17T08:33:44.233Z,9.30
2019-01-17T08:34:44.233Z,9.30
2019-01-17T08:35:44.186Z,11.60
2019-01-17T08:36:44.169Z,11.70
2019-01-17T08:37:44.152Z,11.40
2019-01-17T08:38:44.104Z,8.50
2019-01-17T08:39:44.091Z,10.70
2019-01-17T08:40:44.077Z,10.90
2019-01-17T08:41:44.028Z,12.20
2019-01-17T08:42:44.006Z,11.20
2019-01-17T08:43:43.990Z,10.60
2019-01-17T08:44:43.958Z,13.20
2019-01-17T08:45:43.968Z,9.80
2019-01-17T08:46:43.913Z,10.70
2019-01-17T08:47:43.890Z,12.50
2019-01-17T08:48:43.876Z,11.00
2019-01-17T08:49:43.871Z,11.20
2019-01-17T08:50:43.829Z,11.70
2019-01-17T08:51:43.821Z,10.20
2019-01-17T08:52:43.786Z,14.40
2019-01-17T08:53:43.750Z,13.00
2019-01-17T08:54:43.718Z,10.30
2019-01-17T08:55:43.697Z,11.70
2019-01-17T08:56:43.692Z,11.80
2019-01-17T08:57:43.689Z,10.40
2019-01-17T08:58:43.623Z,12.30
2019-01-17T08:59:43.592Z,12.70
2019-01-17T09:00:43.570Z,11.20
2019-01-17T09:01:43.552Z,11.70
2019-01-17T09:02:43.528Z,11.00
2019-01-17T09:03:43.497Z,10.60
2019-01-17T09:04:43.476Z,9.90
2019-01-17T09:05:43.458Z,11.60
2019-01-17T09:06:43.426Z,10.30
2019-01-17T09:07:43.406Z,9.60
2019-01-17T09:08:43.398Z,9.50
2019-01-17T09:09:43.388Z,8.50
2019-01-17T09:10:43.348Z,10.00
2019-01-17T09:11:43.314Z,10.50
2019-01-17T09:12:43.303Z,11.00
2019-01-17T09:13:43.288Z,11.90
2019-01-17T09:14:43.236Z,11.10
2019-01-17T09:15:43.222Z,11.40
2019-01-17T09:16:43.219Z,9.50
2019-01-17T09:17:43.193Z,10.60
2019-01-17T09:18:43.166Z,11.30
2019-01-17T09:19:43.148Z,11.00
2019-01-17T09:20:43.098Z,11.30
2019-01-17T09:21:43.102Z,10.50
2019-01-17T09:22:43.057Z,11.50
2019-01-17T09:23:43.023Z,9.60
2019-01-17T09:24:43.001Z,13.20
2019-01-17T09:25:42.977Z,11.00
2019-01-17T09:26:42.989Z,9.10
2019-01-17T09:27:42.932Z,11.50
2019-01-17T09:28:42.905Z,13.90
2019-01-17T09:29:42.922Z,9.10
2019-01-17T09:30:42.877Z,9.80
2019-01-17T09:31:42.854Z,8.40
2019-01-17T09:32:42.821Z,8.30
2019-01-17T09:33:42.790Z,9.50
2019-01-17T09:34:42.785Z,9.80
2019-01-17T09:35:43.492Z,7.50
2019-01-17T09:36:42.736Z,8.20
2019-01-17T09:37:42.696Z,8.80
2019-01-17T09:38:42.671Z,8.00
2019-01-17T09:39:42.650Z,9.00
2019-01-17T09:40:42.621Z,8.80
2019-01-17T09:41:42.611Z,7.70
2019-01-17T09:42:42.589Z,7.10
2019-01-17T09:43:42.580Z,7.00
2019-01-17T09:44:42.557Z,7.50
2019-01-17T09:45:42.507Z,6.40
2019-01-17T09:46:42.509Z,8.30
2019-01-17T09:47:42.468Z,8.10
2019-01-17T09:48:42.431Z,6.90
2019-01-17T09:49:42.417Z,5.90
2019-01-17T09:50:42.436Z,6.40
2019-01-17T09:51:42.364Z,7.90
2019-01-17T09:52:42.359Z,9.40
2019-01-17T09:53:42.315Z,7.40
2019-01-17T09:54:42.290Z,7.00
2019-01-17T09:55:42.267Z,8.10
2019-01-17T09:56:42.257Z,5.50
2019-01-17T09:57:42.259Z,7.10
2019-01-17T09:58:42.200Z,9.20
2019-01-17T09:59:42.173Z,6.10
2019-01-17T10:00:42.170Z,7.00
2019-01-17T10:01:42.126Z,7.40
2019-01-17T10:02:42.116Z,6.20
2019-01-17T10:03:42.087Z,5.90
2019-01-17T10:04:42.074Z,7.40
2019-01-17T10:05:42.048Z,6.10
2019-01-17T10:06:42.054Z,5.70
2019-01-17T10:07:41.994Z,5.60
2019-01-17T10:08:41.966Z,6.10
2019-01-17T10:09:41.952Z,5.60
2019-01-17T10:10:41.914Z,4.90
2019-01-17T10:11:41.898Z,7.10
2019-01-17T10:12:41.868Z,5.40
2019-01-17T10:13:41.839Z,5.40
2019-01-17T10:14:41.821Z,5.90
2019-01-17T10:15:41.826Z,3.50
2019-01-17T10:16:41.768Z,4.50
2019-01-17T10:17:41.773Z,4.00
2019-01-17T10:18:41.771Z,3.50
2019-01-17T10:19:41.709Z,4.20
2019-01-17T10:20:41.683Z,3.20
2019-01-17T10:21:41.671Z,2.50
2019-01-17T10:22:41.678Z,2.20
2019-01-17T10:23:41.617Z,3.30
2019-01-17T10:24:41.610Z,3.30
2019-01-17T10:25:41.550Z,2.80
2019-01-17T10:26:41.551Z,3.30
2019-01-17T10:27:41.508Z,3.10
2019-01-17T10:28:41.494Z,3.00
2019-01-17T10:29:41.474Z,4.30
2019-01-17T10:30:41.482Z,3.20
2019-01-17T10:31:41.429Z,4.30
2019-01-17T10:32:41.408Z,4.10
2019-01-17T10:33:41.381Z,3.60
2019-01-17T10:34:41.333Z,5.70
2019-01-17T10:35:41.312Z,4.60
2019-01-17T10:36:41.385Z,4.50
2019-01-17T10:37:41.286Z,2.80
2019-01-17T10:38:41.290Z,2.90
2019-01-17T10:39:41.231Z,2.40
2019-01-17T10:40:41.225Z,4.20
2019-01-17T10:41:41.185Z,3.30
2019-01-17T10:42:41.178Z,4.00
2019-01-17T10:43:41.121Z,3.40
2019-01-17T10:44:41.144Z,2.90
2019-01-17T10:45:41.083Z,5.10
2019-01-17T10:46:41.040Z,3.30
2019-01-17T10:47:41.034Z,3.90
2019-01-17T10:48:41.025Z,3.90
2019-01-17T10:49:40.998Z,3.60
2019-01-17T10:50:40.955Z,4.90
2019-01-17T10:51:40.948Z,3.20
2019-01-17T10:52:40.907Z,5.20
2019-01-17T10:53:40.899Z,4.70
2019-01-17T10:54:40.868Z,3.50
2019-01-17T10:55:40.867Z,4.60
2019-01-17T10:56:41.436Z,3.60
2019-01-17T10:57:40.837Z,3.00
2019-01-17T10:58:40.741Z,3.40
2019-01-17T10:59:40.747Z,3.30
2019-01-17T11:00:40.757Z,3.30
2019-01-17T11:01:40.666Z,2.20
2019-01-17T11:02:40.644Z,3.70
2019-01-17T11:03:40.652Z,2.20
2019-01-17T11:04:40.622Z,4.40
2019-01-17T11:05:40.591Z,4.00
2019-01-17T11:06:40.550Z,4.00
2019-01-17T11:07:40.514Z,5.20
2019-01-17T11:08:40.525Z,4.60
2019-01-17T11:09:40.556Z,4.40
2019-01-17T11:10:40.459Z,5.20
2019-01-17T11:11:40.411Z,3.70
2019-01-17T11:12:40.425Z,3.30
2019-01-17T11:13:40.389Z,3.70
2019-01-17T11:14:40.354Z,3.40
2019-01-17T11:15:40.321Z,3.20
2019-01-17T11:16:40.312Z,4.10
2019-01-17T11:17:40.265Z,3.20
2019-01-17T11:18:40.253Z,5.50
2019-01-17T11:19:40.233Z,3.30
2019-01-17T11:20:40.212Z,4.60
2019-01-17T11:21:40.164Z,3.20
2019-01-17T11:22:40.187Z,3.50
2019-01-17T11:23:40.127Z,4.30
2019-01-17T11:24:40.115Z,4.20
2019-01-17T11:25:40.065Z,4.70
2019-01-17T11:26:40.050Z,3.40
2019-01-17T11:27:40.038Z,5.80
2019-01-17T11:28:39.997Z,4.60
2019-01-17T11:29:39.976Z,3.00
2019-01-17T11:30:39.964Z,3.90
2019-01-17T11:31:39.932Z,4.80
2019-01-17T11:32:39.898Z,4.50
2019-01-17T11:33:39.866Z,3.30
2019-01-17T11:34:39.837Z,2.60
2019-01-17T11:35:39.825Z,3.60
2019-01-17T11:36:39.800Z,3.90
2019-01-17T11:37:39.788Z,2.30
2019-01-17T11:38:39.755Z,2.90
2019-01-17T11:39:39.763Z,2.50
2019-01-17T11:40:39.687Z,2.50
2019-01-17T11:41:39.685Z,2.60
2019-01-17T11:42:39.645Z,2.60
2019-01-17T11:43:39.631Z,2.60
2019-01-17T11:44:39.598Z,2.90
2019-01-17T11:45:39.567Z,3.30
2019-01-17T11:46:39.599Z,2.50
2019-01-17T11:47:39.517Z,2.80
2019-01-17T11:48:39.520Z,3.20
2019-01-17T11:49:39.520Z,3.10
2019-01-17T11:50:39.432Z,3.60
2019-01-17T11:51:39.407Z,3.10
2019-01-17T11:52:39.390Z,2.40
2019-01-17T11:53:39.358Z,2.80
2019-01-17T11:54:39.330Z,2.70
2019-01-17T11:55:39.330Z,2.10
2019-01-17T11:56:41.011Z,3.50
2019-01-17T11:57:39.266Z,2.40
2019-01-17T11:58:39.255Z,3.40
2019-01-17T11:59:39.223Z,3.40
2019-01-17T12:00:39.185Z,3.00
2019-01-17T12:01:39.181Z,2.90
2019-01-17T12:02:39.616Z,2.60
2019-01-17T12:03:39.117Z,2.40
2019-01-17T12:04:39.079Z,3.20
2019-01-17T12:05:39.094Z,3.30
2019-01-17T12:06:39.127Z,4.40
2019-01-17T12:07:39.031Z,3.50
2019-01-17T12:08:39.027Z,3.30
2019-01-17T12:09:38.952Z,3.30
2019-01-17T12:10:38.955Z,4.80
2019-01-17T12:11:38.915Z,3.90
2019-01-17T12:12:38.932Z,3.30
2019-01-17T12:13:38.876Z,3.60
2019-01-17T12:14:38.856Z,3.60
2019-01-17T12:15:38.807Z,3.50
2019-01-17T12:16:38.781Z,3.40
2019-01-17T12:17:38.755Z,3.00
2019-01-17T12:18:38.755Z,3.20
2019-01-17T12:19:38.700Z,2.50
2019-01-17T12:20:38.675Z,4.10
2019-01-17T12:21:38.673Z,3.30
2019-01-17T12:22:38.632Z,3.20
2019-01-17T12:23:38.595Z,3.90
2019-01-17T12:24:38.608Z,3.60
2019-01-17T12:25:38.546Z,4.00
2019-01-17T12:26:38.562Z,3.70
2019-01-17T12:27:42.486Z,3.00
2019-01-17T12:28:38.495Z,3.50
2019-01-17T12:29:38.451Z,3.30
2019-01-17T12:30:38.455Z,3.00
2019-01-17T12:31:38.412Z,3.80
2019-01-17T12:32:38.391Z,3.40
2019-01-17T12:33:38.364Z,3.50
2019-01-17T12:34:38.351Z,3.30
2019-01-17T12:35:38.302Z,3.50
2019-01-17T12:36:38.303Z,3.80
2019-01-17T12:37:38.262Z,3.40
2019-01-17T12:38:38.217Z,3.20
2019-01-17T12:39:38.205Z,4.10
2019-01-17T12:40:38.189Z,3.60
2019-01-17T12:41:38.140Z,3.40
2019-01-17T12:42:38.117Z,3.30
2019-01-17T12:43:38.104Z,3.70
2019-01-17T12:44:38.072Z,3.50
2019-01-17T12:45:38.048Z,3.50
2019-01-17T12:46:38.051Z,5.90
2019-01-17T12:47:38.035Z,4.50
2019-01-17T12:48:37.972Z,3.70
2019-01-17T12:49:37.973Z,5.20
2019-01-17T12:50:37.937Z,4.40
2019-01-17T12:51:37.970Z,6.30
2019-01-17T12:52:37.889Z,4.80
2019-01-17T12:53:37.844Z,4.20
2019-01-17T12:54:37.878Z,4.20
2019-01-17T12:55:37.799Z,3.80
2019-01-17T12:56:37.766Z,4.40
2019-01-17T12:57:37.738Z,4.30
2019-01-17T12:58:37.730Z,4.70
2019-01-17T12:59:37.741Z,4.80
2019-01-17T13:00:37.665Z,5.20
2019-01-17T13:01:37.669Z,4.30
2019-01-17T13:02:37.626Z,4.10
2019-01-17T13:03:37.652Z,6.40
2019-01-17T13:04:37.598Z,4.50
2019-01-17T13:05:37.562Z,4.00